• Join FlightAware (Why Join?)
  • Login
  • US Flag 
07:07PM EST


 

Airport Tracker/Info


-or-


 

Live Flight TrackerFlight Track Log ✈ AFR7869 ✈ 28-Dec-2013 ✈ LFST / SXB - LFBO / TLS

Flight Track Log - Related Links

Times and Time Zones

All times are in EST time to prevent confusion due to time zone crossing. See the AFR7869 flight status page for this flight to view local times or setup timezone preferences in your user account.

Time Position Orientation Groundspeed Altitude Reporting Facility
EST Latitude Longitude Course Direction KTS MPH feet Rate Location/Type
06:47AM 47.7831 6.5573 224° Southwest  Level Estimated
06:48AM 47.7070 6.4519 223° Southwest  Level Estimated
06:49AM 47.6308 6.3468 223° Southwest  Level Estimated
06:50AM 47.5546 6.2420 223° Southwest  Level Estimated
06:51AM 47.4782 6.1376 223° Southwest  Level Estimated
06:52AM 47.4018 6.0334 223° Southwest  Level Estimated
06:53AM 47.3252 5.9296 223° Southwest  Level Estimated
06:54AM 47.2486 5.8260 223° Southwest  Level Estimated
06:55AM 47.1719 5.7227 222° Southwest  Level Estimated
06:56AM 47.0951 5.6198 222° Southwest  Level Estimated
06:57AM 47.0181 5.5171 222° Southwest  Level Estimated
06:58AM 46.9411 5.4148 222° Southwest  Level Estimated
06:59AM 46.8640 5.3127 222° Southwest  Level Estimated
07:00AM 46.7868 5.2109 222° Southwest  Level Estimated
07:01AM 46.7096 5.1094 222° Southwest  Level Estimated
07:02AM 46.6322 5.0082 222° Southwest  Level Estimated
07:03AM 46.5547 4.9073 222° Southwest  Level Estimated
07:04AM 46.4772 4.8067 222° Southwest  Level Estimated
07:05AM 46.3996 4.7063 222° Southwest  Level Estimated
07:06AM 46.3219 4.6063 222° Southwest  Level Estimated
07:07AM 46.2440 4.5065 222° Southwest  Level Estimated
07:08AM 46.1662 4.4071 222° Southwest  Level Estimated
07:09AM 46.0882 4.3079 221° Southwest  Level Estimated
07:10AM 46.0101 4.2089 221° Southwest  Level Estimated
07:11AM 45.9320 4.1103 221° Southwest  Level Estimated
07:12AM 45.8704 4.0328 221° Southwest  Level Estimated
07:13AM 45.8087 3.9555 221° Southwest  Level Estimated
07:14AM 45.7470 3.8784 221° Southwest  Level Estimated
07:15AM 45.6852 3.8014 221° Southwest  Level Estimated
07:16AM 45.6234 3.7246 221° Southwest  Level Estimated
07:17AM 45.5616 3.6480 221° Southwest  Level Estimated
07:18AM 45.4997 3.5715 221° Southwest  Level Estimated
07:19AM 45.4377 3.4952 221° Southwest  Level Estimated
07:20AM 45.3757 3.4191 221° Southwest  Level Estimated
07:21AM 45.3136 3.3431 221° Southwest  Level Estimated
07:22AM 45.2515 3.2673 221° Southwest  Level Estimated
07:23AM 45.1894 3.1917 221° Southwest  Level Estimated
07:24AM 45.1272 3.1163 221° Southwest  Level Estimated
07:25AM 45.0649 3.0410 221° Southwest  Level Estimated
07:26AM 45.0026 2.9658 220° Southwest  Level Estimated
07:27AM 44.9402 2.8909 220° Southwest  Level Estimated
07:28AM 44.8778 2.8160 220° Southwest  Level Estimated
07:29AM 44.8154 2.7414 220° Southwest  Level Estimated
07:30AM 44.7528 2.6669 220° Southwest  Level Estimated
07:31AM 44.6903 2.5926 220° Southwest  Level Estimated
07:32AM 44.6277 2.5184 220° Southwest  Level Estimated
07:33AM 44.5650 2.4444 220° Southwest  Level Estimated
07:34AM 44.5023 2.3706 220° Southwest  Level Estimated
07:35AM 44.4396 2.2969 220° Southwest  Level Estimated
07:36AM 44.3768 2.2234 220° Southwest  Level Estimated
07:37AM 44.3140 2.1500 220° Southwest  Level Estimated
07:38AM 44.2511 2.0768 220° Southwest  Level Estimated
07:39AM 44.1881 2.0037 220° Southwest  Level Estimated
07:40AM 44.1252 1.9308 220° Southwest  Level Estimated
07:41AM 44.0621 1.8581 220° Southwest  Level Estimated
07:42AM 43.9991 1.7855 220° Southwest  Level Estimated
07:43AM 43.9359 1.7131 220° Southwest  Level Estimated
07:44AM 43.8728 1.6408 220° Southwest  Level Estimated
07:45AM 43.8096 1.5687 219° Southwest  Level Estimated
07:46AM 43.7463 1.4967 219° Southwest  Level Estimated
07:47AM 43.6830 1.4248 219° Southwest  Level Estimated
07:48AM 43.6291 1.3638 219° Southwest  Level Estimated
07:49AM 43.6291 1.3638 188° South  Level Estimated
07:50AM 43.6291 1.3638 188° South  Level Estimated
07:51AM 43.6291 1.3638 188° South  Level Estimated
07:52AM 43.6291 1.3638 188° South  Level Estimated
07:53AM 43.6291 1.3638 188° South  Level Estimated
07:54AM 43.6291 1.3638 188° South  Level Estimated
07:55AM 43.6291 1.3638 188° South  Level Estimated
07:56AM 43.6291 1.3638 188° South  Level Estimated
07:57AM 43.6291 1.3638 188° South  Level Estimated
07:58AM 43.6291 1.3638 188° South  Level Estimated
07:59AM 43.6291 1.3638 188° South  Level Estimated
08:00AM 43.6291 1.3638 188° South  Level Estimated
08:01AM 43.6291 1.3638 188° South  Level Estimated
08:02AM 43.6291 1.3638 188° South  Level Estimated
08:03AM 43.6291 1.3638 188° South  Level Estimated
08:04AM 43.6291 1.3638 188° South  Level Estimated
08:05AM 43.6291 1.3638 188° South  Level Estimated